Time;durP1;ratioP1;P1;durP2;ratioP2;P2;SDS_P1;SDS_P2;PMS_P1;PMS_P2;Temp;Humidity;BMP_temperature;BMP_pressure;BME280_temperature;BME280_humidity;BME280_pressure;Samples;Min_cycle;Max_cycle;Signal;HPM_P1;HPM_P2
2023/03/15 00:01:58;;;;;;;5.47;0.90;;;2.80;99.90;;;;;;4993225;28;20512;-51
2023/03/15 00:04:24;;;;;;;4.28;1.00;;;2.90;99.90;;;;;;4990807;28;20389;-48
2023/03/15 00:06:50;;;;;;;3.20;0.90;;;2.70;99.90;;;;;;4992868;28;20073;-50
2023/03/15 00:09:16;;;;;;;3.40;0.98;;;2.80;99.90;;;;;;4992883;28;20486;-51
2023/03/15 00:11:42;;;;;;;5.40;0.88;;;2.80;99.90;;;;;;4993030;28;20038;-50
2023/03/15 00:14:07;;;;;;;6.40;0.90;;;2.80;99.90;;;;;;4992715;28;20042;-50
2023/03/15 00:16:33;;;;;;;4.05;1.00;;;3.00;99.90;;;;;;4993157;28;20038;-50
2023/03/15 00:18:59;;;;;;;5.82;0.80;;;2.90;99.90;;;;;;4992582;28;20129;-43
2023/03/15 00:21:26;;;;;;;5.03;0.73;;;2.90;99.90;;;;;;4992194;28;20125;-47
2023/03/15 00:23:52;;;;;;;3.70;1.10;;;2.90;99.90;;;;;;4991970;28;20042;-49
2023/03/15 00:26:18;;;;;;;4.40;1.00;;;2.90;99.90;;;;;;4992663;28;20129;-50
2023/03/15 00:28:43;;;;;;;10.18;1.08;;;2.90;99.90;;;;;;4990545;28;20050;-49
2023/03/15 00:31:14;;;;;;;4.93;1.00;;;2.90;99.90;;;;;;4991377;28;20052;-47
2023/03/15 00:33:40;;;;;;;5.95;1.08;;;2.90;99.90;;;;;;4991700;28;20126;-48
2023/03/15 00:36:08;;;;;;;7.00;0.80;;;2.80;99.90;;;;;;4991258;28;20145;-47
2023/03/15 00:38:35;;;;;;;6.65;1.05;;;2.90;99.90;;;;;;4992032;28;20117;-51
2023/03/15 00:41:08;;;;;;;4.03;0.70;;;2.90;99.90;;;;;;4992168;28;20143;-50
2023/03/15 00:43:34;;;;;;;3.88;0.85;;;2.90;99.90;;;;;;4991090;28;20275;-48
2023/03/15 00:46:00;;;;;;;3.72;0.88;;;2.80;99.90;;;;;;4991983;28;20049;-48
2023/03/15 00:48:26;;;;;;;3.85;0.70;;;3.40;99.90;;;;;;4990970;28;20591;-51
2023/03/15 00:51:04;;;;;;;6.43;0.90;;;2.80;99.90;;;;;;4989159;28;20042;-48
2023/03/15 00:53:29;;;;;;;4.13;0.82;;;2.90;99.90;;;;;;4991627;28;20113;-52
2023/03/15 00:55:55;;;;;;;6.28;0.90;;;2.90;99.90;;;;;;4991411;28;20038;-50
2023/03/15 00:58:21;;;;;;;6.35;1.38;;;2.90;99.90;;;;;;4991842;28;20038;-51
2023/03/15 01:00:47;;;;;;;5.95;1.02;;;3.00;99.90;;;;;;4991438;28;20046;-49
2023/03/15 01:03:13;;;;;;;11.50;0.80;;;2.90;99.90;;;;;;4991926;28;20034;-47
2023/03/15 01:05:39;;;;;;;6.45;1.13;;;2.90;99.90;;;;;;4991438;28;20085;-48
2023/03/15 01:08:05;;;;;;;4.40;0.70;;;2.90;99.90;;;;;;4991447;28;20517;-47
2023/03/15 01:10:34;;;;;;;5.95;0.90;;;2.80;99.90;;;;;;4991522;28;20121;-49
2023/03/15 01:12:59;;;;;;;7.63;1.15;;;2.90;99.90;;;;;;4991386;28;20074;-48
2023/03/15 01:15:25;;;;;;;2.92;0.70;;;2.80;99.90;;;;;;4990718;28;20080;-46
2023/03/15 01:17:51;;;;;;;8.40;1.17;;;2.80;99.90;;;;;;4990256;28;20034;-51
2023/03/15 01:20:16;;;;;;;6.25;0.90;;;2.80;99.90;;;;;;4990262;28;20887;-48
2023/03/15 01:22:42;;;;;;;6.25;0.88;;;2.80;99.90;;;;;;4991147;28;20035;-49
2023/03/15 01:25:08;;;;;;;3.72;1.30;;;2.80;99.90;;;;;;4991596;28;20031;-46
2023/03/15 01:27:34;;;;;;;11.45;1.10;;;2.80;99.90;;;;;;4991160;28;20556;-51
2023/03/15 01:30:00;;;;;;;4.53;0.77;;;2.80;99.90;;;;;;4991690;28;20043;-49
2023/03/15 01:32:26;;;;;;;7.95;1.10;;;2.80;99.90;;;;;;4991337;28;20058;-47
2023/03/15 01:34:52;;;;;;;3.30;0.80;;;3.00;99.90;;;;;;4990976;28;20038;-47
2023/03/15 01:37:17;;;;;;;7.00;0.95;;;2.90;99.90;;;;;;4989805;28;20500;-51
2023/03/15 01:39:43;;;;;;;4.88;1.00;;;3.00;99.90;;;;;;4991110;28;20026;-47
2023/03/15 01:42:09;;;;;;;6.75;0.70;;;3.00;99.90;;;;;;4989370;28;20042;-46
2023/03/15 01:44:49;;;;;;;3.17;0.77;;;3.00;99.90;;;;;;4989627;28;20042;-49
2023/03/15 01:47:15;;;;;;;8.70;1.10;;;2.90;99.90;;;;;;4990934;28;20042;-50
2023/03/15 01:49:43;;;;;;;6.43;0.88;;;2.80;99.90;;;;;;4991345;28;20100;-45
2023/03/15 01:52:22;;;;;;;9.35;0.93;;;2.70;99.90;;;;;;4990349;28;20046;-49
2023/03/15 01:55:04;;;;;;;4.43;0.70;;;2.80;99.90;;;;;;4989470;28;20037;-49
2023/03/15 01:57:51;;;;;;;4.07;0.60;;;2.70;99.90;;;;;;4990737;28;20046;-48
2023/03/15 02:00:19;;;;;;;6.95;0.70;;;2.60;99.90;;;;;;4990572;28;20038;-46
2023/03/15 02:03:23;;;;;;;6.47;0.70;;;2.60;99.90;;;;;;4990851;28;20955;-49
2023/03/15 02:05:56;;;;;;;4.38;0.80;;;2.60;99.90;;;;;;4990239;28;20053;-51
2023/03/15 02:08:27;;;;;;;3.53;0.68;;;2.90;99.90;;;;;;4989034;28;20046;-48
2023/03/15 02:10:57;;;;;;;8.32;0.82;;;2.60;99.90;;;;;;4989006;28;20049;-48
2023/03/15 02:13:24;;;;;;;6.30;0.90;;;2.50;99.90;;;;;;4990591;28;20038;-52
2023/03/15 02:15:54;;;;;;;8.15;0.93;;;2.50;99.90;;;;;;4990790;28;20049;-48
2023/03/15 02:18:21;;;;;;;4.05;0.77;;;2.40;99.90;;;;;;4990640;28;20034;-49
2023/03/15 02:21:01;;;;;;;8.20;1.08;;;2.50;99.90;;;;;;4990242;28;20042;-50
2023/03/15 02:23:27;;;;;;;5.90;0.90;;;2.40;99.90;;;;;;4988804;28;20130;-48
2023/03/15 02:26:35;;;;;;;5.57;0.73;;;2.30;99.90;;;;;;4990724;28;20034;-49
2023/03/15 02:29:01;;;;;;;6.80;1.00;;;2.30;99.90;;;;;;4986415;28;20105;-52
2023/03/15 02:31:28;;;;;;;4.47;0.70;;;2.20;99.90;;;;;;4990207;28;20050;-49
2023/03/15 02:33:56;;;;;;;4.97;0.95;;;2.20;99.90;;;;;;4990379;28;20045;-49
2023/03/15 02:36:25;;;;;;;6.80;0.98;;;2.20;99.90;;;;;;4990276;28;20048;-48
2023/03/15 02:38:52;;;;;;;9.27;1.10;;;2.10;99.90;;;;;;4990673;28;20445;-47
2023/03/15 02:41:25;;;;;;;9.15;1.15;;;2.00;99.90;;;;;;4990186;28;20046;-49
2023/03/15 02:43:54;;;;;;;5.03;0.70;;;2.30;99.90;;;;;;4990622;28;20041;-47
2023/03/15 02:46:20;;;;;;;5.75;0.90;;;1.90;99.90;;;;;;4990397;28;20125;-50
2023/03/15 02:48:48;;;;;;;6.15;0.93;;;1.90;99.90;;;;;;4991200;28;20462;-51
2023/03/15 02:51:21;;;;;;;8.02;1.00;;;1.90;99.90;;;;;;4990263;28;20039;-47
2023/03/15 02:53:46;;;;;;;4.55;1.00;;;1.90;99.90;;;;;;4992214;28;20996;-50
2023/03/15 02:56:13;;;;;;;7.25;1.05;;;2.00;99.90;;;;;;4993903;28;20046;-48
2023/03/15 02:58:39;;;;;;;6.65;1.17;;;1.90;99.90;;;;;;4992550;28;20044;-48
2023/03/15 03:01:05;;;;;;;6.60;0.80;;;2.40;99.90;;;;;;4994563;28;20049;-50
2023/03/15 03:03:31;;;;;;;3.30;0.70;;;1.80;99.90;;;;;;4993593;28;20379;-46
2023/03/15 03:05:56;;;;;;;8.35;1.10;;;1.80;99.90;;;;;;4994018;28;20080;-46
2023/03/15 03:08:22;;;;;;;4.53;0.70;;;1.80;99.90;;;;;;4993923;28;20030;-51
2023/03/15 03:10:48;;;;;;;4.03;0.82;;;1.80;99.90;;;;;;4993937;28;20185;-49
2023/03/15 03:13:14;;;;;;;7.20;0.90;;;1.70;99.90;;;;;;4994631;28;20042;-49
2023/03/15 03:15:44;;;;;;;4.05;0.75;;;1.70;99.90;;;;;;4994145;28;20034;-51
2023/03/15 03:18:10;;;;;;;7.43;0.75;;;1.60;99.90;;;;;;4993931;28;20038;-48
2023/03/15 03:20:36;;;;;;;6.35;0.95;;;1.60;99.90;;;;;;4993767;28;20074;-50
2023/03/15 03:23:04;;;;;;;10.57;1.05;;;1.50;99.90;;;;;;4991777;28;20483;-49
2023/03/15 03:25:31;;;;;;;6.95;0.80;;;1.40;99.90;;;;;;4993800;28;20498;-51
2023/03/15 03:27:58;;;;;;;9.02;1.00;;;1.40;99.90;;;;;;4993283;28;20244;-50
2023/03/15 03:30:24;;;;;;;8.95;1.23;;;1.50;99.90;;;;;;4993614;28;20089;-45
2023/03/15 03:32:50;;;;;;;7.63;1.02;;;1.40;99.90;;;;;;4992999;28;20042;-47
2023/03/15 03:35:15;;;;;;;7.18;0.82;;;1.40;99.90;;;;;;4993247;28;20046;-49
2023/03/15 03:37:41;;;;;;;6.75;0.60;;;1.30;99.90;;;;;;4993426;28;20532;-50
2023/03/15 03:40:08;;;;;;;4.35;0.95;;;1.40;99.90;;;;;;4993271;28;20140;-47
2023/03/15 03:42:34;;;;;;;7.68;1.35;;;1.40;99.90;;;;;;4993354;28;20038;-49
2023/03/15 03:45:00;;;;;;;7.65;1.00;;;1.30;99.90;;;;;;4993384;28;20478;-49
2023/03/15 03:47:26;;;;;;;5.57;0.88;;;1.30;99.90;;;;;;4993492;28;20127;-51
2023/03/15 03:49:51;;;;;;;6.70;0.85;;;1.20;99.90;;;;;;4993104;28;20042;-50
2023/03/15 03:52:17;;;;;;;3.88;0.80;;;1.20;99.90;;;;;;4992973;28;20862;-49
2023/03/15 03:54:43;;;;;;;7.93;0.70;;;1.30;99.90;;;;;;4993347;28;20042;-50
2023/03/15 03:57:09;;;;;;;7.78;1.10;;;1.10;99.90;;;;;;4993387;28;20469;-49
2023/03/15 03:59:35;;;;;;;5.25;0.75;;;1.20;99.90;;;;;;4991464;28;20401;-48
2023/03/15 04:02:00;;;;;;;4.78;0.68;;;1.10;99.90;;;;;;4992773;28;20043;-48
2023/03/15 04:04:26;;;;;;;6.85;0.90;;;1.10;99.90;;;;;;4991046;28;20038;-47
2023/03/15 04:06:53;;;;;;;8.23;0.90;;;1.20;99.90;;;;;;4993613;28;20050;-48
2023/03/15 04:09:20;;;;;;;10.38;1.30;;;1.40;99.90;;;;;;4992253;28;20065;-48
2023/03/15 04:11:46;;;;;;;4.43;0.75;;;1.20;99.90;;;;;;4991775;28;20486;-48
2023/03/15 04:14:13;;;;;;;5.97;0.68;;;1.20;99.90;;;;;;4992649;28;20034;-48
2023/03/15 04:16:39;;;;;;;3.88;0.90;;;1.10;99.90;;;;;;4991540;28;20118;-47
2023/03/15 04:19:06;;;;;;;5.35;1.88;;;1.20;99.90;;;;;;4992868;28;20397;-46
2023/03/15 04:21:32;;;;;;;4.93;0.70;;;1.20;99.90;;;;;;4991941;28;20525;-49
2023/03/15 04:24:02;;;;;;;7.72;0.85;;;1.20;99.90;;;;;;4992479;28;20134;-46
2023/03/15 04:26:28;;;;;;;6.47;1.02;;;1.40;99.90;;;;;;4992538;28;20045;-45
2023/03/15 04:28:55;;;;;;;5.43;0.90;;;1.50;99.90;;;;;;4990840;28;20046;-45
2023/03/15 04:31:25;;;;;;;7.30;0.88;;;1.50;99.90;;;;;;4992578;28;20101;-47
2023/03/15 04:33:55;;;;;;;7.50;1.00;;;1.50;99.90;;;;;;4974568;28;20077;-47
2023/03/15 04:36:21;;;;;;;7.82;1.00;;;1.60;99.90;;;;;;4989549;28;20081;-48
2023/03/15 04:38:48;;;;;;;6.00;0.93;;;1.50;99.90;;;;;;4992068;28;20046;-47
2023/03/15 04:41:15;;;;;;;8.20;0.90;;;1.50;99.90;;;;;;4990497;28;20093;-48
2023/03/15 04:43:42;;;;;;;4.65;1.52;;;1.50;99.90;;;;;;4992262;28;20478;-48
2023/03/15 04:46:08;;;;;;;5.80;1.00;;;1.50;99.90;;;;;;4992074;28;20470;-49
2023/03/15 04:48:34;;;;;;;3.30;0.73;;;1.50;99.90;;;;;;4990879;28;20039;-49
2023/03/15 04:51:00;;;;;;;7.47;2.25;;;1.50;99.90;;;;;;4991232;28;20045;-49
2023/03/15 04:53:26;;;;;;;5.32;0.70;;;1.60;99.90;;;;;;4990333;28;20050;-48
2023/03/15 04:55:51;;;;;;;5.10;0.95;;;1.60;99.90;;;;;;4992328;28;20433;-47
2023/03/15 04:58:18;;;;;;;4.50;0.98;;;1.60;99.90;;;;;;4992070;28;20120;-48
2023/03/15 05:00:44;;;;;;;7.35;1.20;;;1.60;99.90;;;;;;4991619;28;20034;-47
2023/03/15 05:03:10;;;;;;;4.72;1.00;;;1.50;99.90;;;;;;4989575;28;20498;-48
2023/03/15 05:05:35;;;;;;;2.88;0.70;;;1.60;99.90;;;;;;4992478;28;20078;-51
2023/03/15 05:08:01;;;;;;;7.38;0.75;;;1.40;99.90;;;;;;4992240;28;20486;-49
2023/03/15 05:10:29;;;;;;;4.97;0.80;;;1.60;99.90;;;;;;4990388;28;20394;-47
2023/03/15 05:12:54;;;;;;;5.47;1.00;;;1.50;99.90;;;;;;4991448;28;20502;-49
2023/03/15 05:15:20;;;;;;;7.57;1.17;;;1.50;99.90;;;;;;4991389;28;20042;-51
2023/03/15 05:17:47;;;;;;;6.90;0.68;;;1.60;99.90;;;;;;4991378;28;20053;-47
2023/03/15 05:20:15;;;;;;;3.85;0.73;;;1.40;99.90;;;;;;4992211;28;20080;-49
2023/03/15 05:22:42;;;;;;;2.17;0.60;;;1.50;99.90;;;;;;4990056;28;20065;-51
2023/03/15 05:25:09;;;;;;;6.70;0.70;;;1.50;99.90;;;;;;4990858;28;20044;-47
2023/03/15 05:27:35;;;;;;;3.83;0.65;;;1.50;99.90;;;;;;4990728;28;20129;-47
2023/03/15 05:30:02;;;;;;;5.00;0.80;;;1.50;99.90;;;;;;4991609;28;20520;-50
2023/03/15 05:32:33;;;;;;;4.68;0.70;;;1.60;99.90;;;;;;4991691;28;20069;-49
2023/03/15 05:35:00;;;;;;;6.25;1.05;;;1.50;99.90;;;;;;4991874;28;20053;-46
2023/03/15 05:37:26;;;;;;;7.68;1.40;;;1.50;99.90;;;;;;4991816;28;20457;-50
2023/03/15 05:39:52;;;;;;;2.75;0.70;;;1.50;99.90;;;;;;4990931;28;20034;-50
2023/03/15 05:42:24;;;;;;;3.67;1.02;;;1.50;99.90;;;;;;4991260;28;20042;-48
2023/03/15 05:44:51;;;;;;;5.28;0.90;;;1.50;99.90;;;;;;4990623;28;20041;-48
2023/03/15 05:47:17;;;;;;;4.95;0.80;;;1.50;99.90;;;;;;4988161;28;20049;-50
2023/03/15 05:49:43;;;;;;;3.78;0.73;;;1.50;99.90;;;;;;4991385;28;20026;-50
2023/03/15 05:52:09;;;;;;;6.70;0.93;;;1.60;99.90;;;;;;4990049;28;20085;-49
2023/03/15 05:54:35;;;;;;;5.38;0.98;;;1.60;99.90;;;;;;4990764;28;20084;-47
2023/03/15 05:57:01;;;;;;;4.43;0.75;;;1.50;99.90;;;;;;4991117;28;20034;-50
2023/03/15 05:59:26;;;;;;;6.07;0.77;;;1.70;99.90;;;;;;4989165;28;20089;-49
2023/03/15 06:01:52;;;;;;;3.63;0.60;;;1.50;99.90;;;;;;4989521;28;20042;-48
2023/03/15 06:04:18;;;;;;;4.78;0.77;;;1.60;99.90;;;;;;4990833;28;20070;-49
2023/03/15 06:06:43;;;;;;;5.47;1.02;;;1.50;99.90;;;;;;4988981;28;20495;-49
2023/03/15 06:09:09;;;;;;;6.30;0.82;;;2.00;99.90;;;;;;4990959;28;20173;-50
2023/03/15 06:11:35;;;;;;;3.47;0.60;;;1.50;99.90;;;;;;4991464;28;20124;-50
2023/03/15 06:14:01;;;;;;;3.30;0.55;;;1.50;99.90;;;;;;4991265;28;20045;-48
2023/03/15 06:16:26;;;;;;;6.15;0.90;;;1.60;99.90;;;;;;4990260;28;20490;-49
2023/03/15 06:18:52;;;;;;;7.03;0.68;;;1.50;99.90;;;;;;4990962;28;20051;-45
2023/03/15 06:21:17;;;;;;;5.13;0.77;;;1.50;99.90;;;;;;4990767;28;20118;-51
2023/03/15 06:23:43;;;;;;;2.15;0.60;;;1.50;99.90;;;;;;4990101;28;20042;-47
2023/03/15 06:26:09;;;;;;;8.70;0.80;;;1.70;99.90;;;;;;4989052;28;20031;-46
2023/03/15 06:28:35;;;;;;;7.25;0.82;;;1.40;99.90;;;;;;4991874;28;20517;-46
2023/03/15 06:31:08;;;;;;;3.35;0.63;;;1.40;99.90;;;;;;4994484;28;20132;-46
2023/03/15 06:33:33;;;;;;;6.63;0.70;;;1.30;99.90;;;;;;4994845;28;20398;-49
2023/03/15 06:35:59;;;;;;;2.50;0.60;;;1.30;99.90;;;;;;4994433;28;20030;-45
2023/03/15 06:38:25;;;;;;;8.80;0.85;;;1.40;99.90;;;;;;4994637;28;20050;-47
2023/03/15 06:40:50;;;;;;;4.30;0.80;;;1.30;99.90;;;;;;4994474;28;20046;-48
2023/03/15 06:43:19;;;;;;;4.38;0.55;;;1.30;99.90;;;;;;4994489;28;20367;-48
2023/03/15 06:45:45;;;;;;;3.10;0.60;;;1.30;99.90;;;;;;4994287;28;20030;-48
2023/03/15 06:48:12;;;;;;;3.60;0.68;;;1.30;99.90;;;;;;4994799;28;20109;-48
2023/03/15 06:50:38;;;;;;;5.95;0.70;;;1.30;99.90;;;;;;4991782;28;20442;-46
2023/03/15 06:53:05;;;;;;;3.17;0.60;;;1.20;99.90;;;;;;4990178;28;20077;-49
2023/03/15 06:55:31;;;;;;;4.28;0.95;;;1.30;99.90;;;;;;4990670;28;20121;-47
2023/03/15 06:57:57;;;;;;;4.40;0.80;;;1.20;99.90;;;;;;4992268;28;20046;-49
2023/03/15 07:00:23;;;;;;;5.15;0.80;;;1.40;99.90;;;;;;4990964;28;20045;-51
2023/03/15 07:02:49;;;;;;;5.63;0.70;;;1.30;99.90;;;;;;4993775;28;20382;-50
2023/03/15 07:05:15;;;;;;;6.95;2.10;;;1.40;99.90;;;;;;4993053;28;20436;-49
2023/03/15 07:07:40;;;;;;;16.25;4.80;;;1.40;99.90;;;;;;4994030;28;20045;-48
2023/03/15 07:10:06;;;;;;;20.25;5.88;;;1.60;99.90;;;;;;4983639;28;20093;-49
2023/03/15 07:12:32;;;;;;;23.88;5.82;;;1.70;99.90;;;;;;4983469;28;20490;-46
2023/03/15 07:14:58;;;;;;;20.30;5.20;;;1.70;99.90;;;;;;4982739;28;20073;-50
2023/03/15 07:17:23;;;;;;;14.75;5.00;;;1.80;99.90;;;;;;4982679;28;20062;-49
2023/03/15 07:19:50;;;;;;;12.02;4.30;;;2.20;99.90;;;;;;4984396;28;20046;-45
2023/03/15 07:22:16;;;;;;;10.75;3.03;;;1.90;99.90;;;;;;4984424;28;20057;-49
2023/03/15 07:24:42;;;;;;;10.70;2.85;;;2.00;99.90;;;;;;4983183;28;20042;-49
2023/03/15 07:27:11;;;;;;;10.60;3.05;;;2.10;99.90;;;;;;4983850;28;20043;-47
2023/03/15 07:29:37;;;;;;;13.38;3.47;;;2.20;99.90;;;;;;4983346;28;20054;-48
2023/03/15 07:32:02;;;;;;;9.63;2.20;;;2.20;99.90;;;;;;4984870;28;20038;-48
2023/03/15 07:34:28;;;;;;;6.97;1.45;;;2.30;99.90;;;;;;4985621;28;20030;-49
2023/03/15 07:36:54;;;;;;;9.48;1.67;;;2.40;99.90;;;;;;4986380;28;20042;-48
2023/03/15 07:39:19;;;;;;;5.72;1.15;;;2.50;99.90;;;;;;4983120;28;20389;-48
2023/03/15 07:41:45;;;;;;;7.18;1.10;;;2.60;99.90;;;;;;4983194;28;20038;-48
2023/03/15 07:44:11;;;;;;;7.07;0.90;;;2.80;99.90;;;;;;4983332;28;20429;-50
2023/03/15 07:46:37;;;;;;;6.38;1.05;;;2.90;99.90;;;;;;4983671;28;20405;-45
2023/03/15 07:49:03;;;;;;;6.70;1.17;;;3.00;99.90;;;;;;4983465;28;20037;-48
2023/03/15 07:51:28;;;;;;;7.32;0.90;;;3.50;99.90;;;;;;4983713;28;20034;-46
2023/03/15 07:53:54;;;;;;;5.65;0.80;;;3.40;99.90;;;;;;4983747;28;20161;-52
2023/03/15 07:56:20;;;;;;;7.82;1.10;;;3.60;99.90;;;;;;4981022;28;20500;-47
2023/03/15 07:58:46;;;;;;;2.90;0.70;;;3.30;99.90;;;;;;4983654;28;20042;-47
2023/03/15 08:01:11;;;;;;;5.53;1.38;;;3.30;99.90;;;;;;4984146;28;20468;-47
2023/03/15 08:03:37;;;;;;;13.95;2.80;;;3.40;99.90;;;;;;4983325;28;20031;-52
2023/03/15 08:06:03;;;;;;;13.52;2.72;;;3.50;99.90;;;;;;4983988;28;20735;-47
2023/03/15 08:08:28;;;;;;;8.70;1.55;;;3.60;99.90;;;;;;4983453;28;20039;-48
2023/03/15 08:10:54;;;;;;;8.65;1.40;;;3.60;99.90;;;;;;4983455;28;21378;-48
2023/03/15 08:13:20;;;;;;;10.82;1.50;;;3.70;99.90;;;;;;4982268;28;20042;-46
2023/03/15 08:15:46;;;;;;;10.77;2.00;;;3.80;99.90;;;;;;4983842;28;20052;-49
2023/03/15 08:18:12;;;;;;;7.95;1.73;;;3.80;99.90;;;;;;4980696;28;20449;-51
2023/03/15 08:20:38;;;;;;;11.00;1.35;;;4.90;99.90;;;;;;4983950;28;20038;-45
2023/03/15 08:23:04;;;;;;;9.10;0.98;;;4.30;99.90;;;;;;4983524;28;20036;-49
2023/03/15 08:25:30;;;;;;;8.57;0.90;;;4.00;99.90;;;;;;4982740;28;20315;-48
2023/03/15 08:27:56;;;;;;;8.25;1.10;;;4.10;99.90;;;;;;4982879;28;20050;-47
2023/03/15 08:30:22;;;;;;;6.03;0.90;;;4.20;99.90;;;;;;4982074;28;20403;-50
2023/03/15 08:32:51;;;;;;;4.32;0.75;;;4.40;99.90;;;;;;4980695;28;20120;-49
2023/03/15 08:35:18;;;;;;;4.18;0.90;;;4.50;99.90;;;;;;4980093;28;20061;-46
2023/03/15 08:37:46;;;;;;;4.72;1.08;;;4.50;99.90;;;;;;4982728;28;20038;-46
2023/03/15 08:40:17;;;;;;;5.88;0.82;;;4.50;99.90;;;;;;4982037;28;20442;-48
2023/03/15 08:42:44;;;;;;;5.90;1.20;;;4.40;99.90;;;;;;4981622;28;20038;-46
2023/03/15 08:45:10;;;;;;;6.45;1.23;;;4.40;99.90;;;;;;4980701;28;20117;-47
2023/03/15 08:47:36;;;;;;;4.78;0.80;;;4.30;99.90;;;;;;4980018;28;20050;-49
2023/03/15 08:50:05;;;;;;;4.68;0.77;;;4.40;99.90;;;;;;4980034;28;20042;-52
2023/03/15 08:52:31;;;;;;;6.60;1.20;;;4.40;99.90;;;;;;4980332;28;20035;-50
2023/03/15 08:54:57;;;;;;;9.23;1.00;;;4.50;99.90;;;;;;4980752;28;20035;-48
2023/03/15 08:57:24;;;;;;;6.38;0.98;;;4.50;99.90;;;;;;4982192;28;20093;-48
2023/03/15 08:59:51;;;;;;;4.68;0.70;;;4.60;99.90;;;;;;4982094;28;20042;-49
2023/03/15 09:02:17;;;;;;;6.18;1.20;;;5.00;99.90;;;;;;4979873;28;20075;-47
2023/03/15 09:04:43;;;;;;;4.07;1.23;;;5.10;99.90;;;;;;4980268;28;20146;-50
2023/03/15 09:07:09;;;;;;;6.65;0.93;;;4.80;99.90;;;;;;4981344;28;20034;-48
2023/03/15 09:09:34;;;;;;;9.75;0.95;;;4.80;99.90;;;;;;4981511;28;20097;-50
2023/03/15 09:12:00;;;;;;;8.02;0.90;;;4.80;99.90;;;;;;4980497;28;20046;-48
2023/03/15 09:14:26;;;;;;;5.57;1.20;;;4.80;99.90;;;;;;4981394;28;20497;-48
2023/03/15 09:16:52;;;;;;;7.20;0.98;;;4.90;99.90;;;;;;4981480;28;20054;-51
2023/03/15 09:19:18;;;;;;;10.50;1.27;;;5.00;99.90;;;;;;4981993;28;20034;-48
2023/03/15 09:21:45;;;;;;;7.88;1.10;;;5.10;99.90;;;;;;4980609;28;20486;-50
2023/03/15 09:24:11;;;;;;;4.50;0.80;;;5.40;99.90;;;;;;4979298;28;20034;-48
2023/03/15 09:26:37;;;;;;;6.45;0.75;;;5.30;99.90;;;;;;4979486;28;20042;-49
2023/03/15 09:29:03;;;;;;;8.98;1.30;;;5.30;99.90;;;;;;4981469;28;20073;-49
2023/03/15 09:31:30;;;;;;;10.82;1.40;;;5.30;99.90;;;;;;4980819;28;20125;-48
2023/03/15 09:33:57;;;;;;;6.65;1.13;;;5.30;99.90;;;;;;4981160;28;20049;-49
2023/03/15 09:36:23;;;;;;;9.50;1.20;;;5.30;99.90;;;;;;4979036;28;20129;-51
2023/03/15 09:38:49;;;;;;;13.27;1.15;;;5.20;99.90;;;;;;4981590;28;20192;-49
2023/03/15 09:41:40;;;;;;;7.32;1.10;;;5.10;99.90;;;;;;4980116;28;20042;-49
2023/03/15 09:44:30;;;;;;;8.45;1.10;;;5.10;99.90;;;;;;4976649;28;20100;-49
2023/03/15 09:47:15;;;;;;;5.88;1.20;;;5.60;99.90;;;;;;4981452;28;20110;-48
2023/03/15 09:49:51;;;;;;;5.50;2.00;;;5.40;99.90;;;;;;4980149;28;20034;-48
2023/03/15 09:52:32;;;;;;;9.73;1.70;;;5.50;99.90;;;;;;4979675;28;20080;-50
2023/03/15 09:55:14;;;;;;;8.10;1.40;;;5.60;99.90;;;;;;4981733;28;20042;-48
2023/03/15 09:57:46;;;;;;;8.57;1.10;;;5.60;99.90;;;;;;4982419;28;20042;-49
2023/03/15 10:00:18;;;;;;;5.40;1.30;;;5.60;99.90;;;;;;4980023;28;20046;-47
2023/03/15 10:02:56;;;;;;;4.63;0.95;;;5.50;99.90;;;;;;4980179;28;20568;-47
2023/03/15 10:05:47;;;;;;;4.70;0.88;;;5.50;99.90;;;;;;4980244;28;20039;-46
2023/03/15 10:08:18;;;;;;;7.55;0.93;;;5.60;99.90;;;;;;4980559;28;20406;-51
2023/03/15 10:10:53;;;;;;;7.18;1.10;;;5.80;99.90;;;;;;4979471;28;20046;-49
2023/03/15 10:13:43;;;;;;;6.60;1.10;;;5.90;99.90;;;;;;4979877;28;20055;-48
2023/03/15 10:16:27;;;;;;;4.63;0.98;;;6.00;99.90;;;;;;4981354;28;20113;-48
2023/03/15 10:19:00;;;;;;;5.50;0.80;;;5.90;99.90;;;;;;4979978;28;20130;-46
2023/03/15 10:21:48;;;;;;;4.60;1.02;;;6.00;99.90;;;;;;4977390;28;20047;-50
2023/03/15 10:25:00;;;;;;;10.50;1.30;;;6.00;99.90;;;;;;4981500;28;20104;-49
2023/03/15 10:27:48;;;;;;;5.05;0.82;;;6.20;99.90;;;;;;4941005;28;20168;-48
2023/03/15 10:30:25;;;;;;;5.50;1.13;;;6.30;99.90;;;;;;4978681;28;20104;-47
2023/03/15 10:33:04;;;;;;;5.07;1.02;;;6.30;99.90;;;;;;4978691;28;20114;-48
2023/03/15 10:35:30;;;;;;;7.38;1.20;;;6.30;99.90;;;;;;4977435;28;20089;-50
2023/03/15 10:37:57;;;;;;;7.20;1.00;;;6.40;99.90;;;;;;4978507;28;20117;-48
2023/03/15 10:40:45;;;;;;;5.47;1.33;;;6.50;99.90;;;;;;4958737;28;20095;-49
2023/03/15 10:43:19;;;;;;;10.88;1.58;;;6.70;99.90;;;;;;4978606;28;20037;-47
2023/03/15 10:46:09;;;;;;;7.57;1.40;;;6.90;99.90;;;;;;4980425;28;20038;-50
2023/03/15 10:48:50;;;;;;;8.10;1.33;;;7.00;99.90;;;;;;4978622;28;20471;-47
2023/03/15 10:51:42;;;;;;;6.80;1.42;;;6.80;99.90;;;;;;4976979;28;20042;-52
2023/03/15 10:54:17;;;;;;;4.78;1.00;;;6.60;99.90;;;;;;4973270;28;20105;-49
2023/03/15 10:56:45;;;;;;;8.05;1.10;;;6.40;99.90;;;;;;4981948;28;20070;-50
2023/03/15 10:59:25;;;;;;;19.73;1.55;;;6.20;99.90;;;;;;4980470;28;20476;-48
2023/03/15 11:02:15;;;;;;;11.43;1.48;;;6.20;99.90;;;;;;4981234;28;20137;-48
2023/03/15 11:05:07;;;;;;;10.80;1.30;;;6.10;99.90;;;;;;4975968;28;20052;-48
2023/03/15 11:07:36;;;;;;;7.32;1.00;;;6.20;99.90;;;;;;4973352;28;20497;-47
2023/03/15 11:10:07;;;;;;;11.18;1.45;;;6.30;99.90;;;;;;4975495;28;20596;-51
2023/03/15 11:12:33;;;;;;;12.18;1.60;;;6.60;99.90;;;;;;4973976;28;20046;-49
2023/03/15 11:15:06;;;;;;;7.32;1.40;;;6.80;99.90;;;;;;4974697;28;20042;-48
2023/03/15 11:17:34;;;;;;;8.10;1.30;;;6.80;99.90;;;;;;4975237;28;20543;-49
2023/03/15 11:20:29;;;;;;;7.15;1.00;;;6.60;99.90;;;;;;5003715;28;20436;-48
2023/03/15 11:22:56;;;;;;;8.20;1.10;;;6.60;99.90;;;;;;4974992;28;20051;-48
2023/03/15 11:25:27;;;;;;;5.30;1.05;;;6.80;99.90;;;;;;4976383;28;20483;-48
2023/03/15 11:27:53;;;;;;;7.78;1.10;;;7.00;99.90;;;;;;4975451;28;20124;-50
2023/03/15 11:30:30;;;;;;;6.40;1.17;;;6.90;99.90;;;;;;4972241;28;20133;-47
2023/03/15 11:33:06;;;;;;;6.38;0.88;;;7.00;99.90;;;;;;4976516;28;20564;-50
2023/03/15 11:35:37;;;;;;;7.07;1.30;;;7.10;99.90;;;;;;4976855;28;20094;-48
2023/03/15 11:38:32;;;;;;;6.97;1.10;;;7.20;99.90;;;;;;4975837;28;20081;-46
2023/03/15 11:40:59;;;;;;;6.63;1.35;;;7.30;99.90;;;;;;4982110;28;20035;-50
2023/03/15 11:43:46;;;;;;;11.25;1.55;;;7.50;99.90;;;;;;4987489;28;20030;-49
2023/03/15 11:46:31;;;;;;;5.68;1.20;;;7.70;99.90;;;;;;4983764;28;20501;-51
2023/03/15 11:49:13;;;;;;;7.15;1.20;;;8.00;99.90;;;;;;4984147;28;20046;-51
2023/03/15 11:51:39;;;;;;;5.70;1.10;;;8.20;99.90;;;;;;4986711;28;20149;-51
2023/03/15 11:54:15;;;;;;;6.05;1.40;;;8.30;99.90;;;;;;4985685;28;20046;-50
2023/03/15 11:56:45;;;;;;;5.43;0.98;;;8.60;99.90;;;;;;4984672;28;20350;-49
2023/03/15 11:59:14;;;;;;;5.93;1.05;;;8.70;99.90;;;;;;4982359;28;20042;-50
2023/03/15 12:02:08;;;;;;;6.47;1.48;;;8.80;99.90;;;;;;4986497;28;20038;-51
2023/03/15 12:04:34;;;;;;;5.95;1.65;;;8.90;99.90;;;;;;4981375;28;20064;-52
2023/03/15 12:07:11;;;;;;;10.70;2.65;;;9.00;99.90;;;;;;4981197;28;20043;-51
2023/03/15 12:09:39;;;;;;;7.25;1.60;;;9.00;99.90;;;;;;4988602;28;20038;-46
2023/03/15 12:12:25;;;;;;;6.40;1.65;;;8.80;99.90;;;;;;4989491;28;20046;-51
2023/03/15 12:15:13;;;;;;;6.22;1.63;;;8.50;99.90;;;;;;4985677;28;20398;-50
2023/03/15 12:17:50;;;;;;;5.38;1.08;;;8.20;99.90;;;;;;4976339;28;20387;-48
2023/03/15 12:20:19;;;;;;;5.15;1.40;;;8.00;99.90;;;;;;4989924;28;20096;-46
2023/03/15 12:22:52;;;;;;;8.27;1.33;;;8.20;99.90;;;;;;4991230;28;20038;-49
2023/03/15 12:25:55;;;;;;;4.00;1.25;;;8.50;99.90;;;;;;4991296;28;20038;-49
2023/03/15 12:28:30;;;;;;;6.47;1.27;;;8.70;99.90;;;;;;4970179;28;20056;-49
2023/03/15 12:31:00;;;;;;;4.38;0.90;;;9.00;99.90;;;;;;4988935;28;20092;-48
2023/03/15 12:33:27;;;;;;;8.60;1.27;;;9.10;99.90;;;;;;4991653;28;20109;-48
2023/03/15 12:36:02;;;;;;;6.60;1.17;;;9.20;99.90;;;;;;4992039;28;20422;-47
2023/03/15 12:38:36;;;;;;;5.82;1.23;;;9.20;99.90;;;;;;4991619;28;20121;-50
2023/03/15 12:41:05;;;;;;;;;;;9.30;99.90;;;;;;4992516;28;20113;-48
2023/03/15 12:43:45;;;;;;;5.53;1.33;;;9.30;99.90;;;;;;4991633;28;20266;-51
2023/03/15 12:46:35;;;;;;;6.13;2.00;;;9.40;99.90;;;;;;4992302;28;20034;-48
2023/03/15 12:49:17;;;;;;;7.05;1.70;;;9.70;99.90;;;;;;4992174;28;20101;-50
2023/03/15 12:52:03;;;;;;;8.25;1.83;;;9.80;99.90;;;;;;4992649;28;20466;-48
2023/03/15 12:54:53;;;;;;;8.27;1.73;;;9.90;99.90;;;;;;4991444;28;20046;-47
2023/03/15 12:57:28;;;;;;;8.00;1.92;;;10.30;99.90;;;;;;4991893;28;20089;-49
2023/03/15 13:00:00;;;;;;;7.88;1.23;;;10.50;99.90;;;;;;4991847;28;20050;-51
2023/03/15 13:02:31;;;;;;;6.55;1.48;;;10.70;99.90;;;;;;4992354;28;20493;-49
2023/03/15 13:05:12;;;;;;;5.97;1.25;;;10.70;99.90;;;;;;4991882;28;20936;-47
2023/03/15 13:08:16;;;;;;;5.43;1.17;;;10.90;99.90;;;;;;4991338;28;20076;-51
2023/03/15 13:11:03;;;;;;;5.75;1.48;;;11.00;99.90;;;;;;4990597;28;20105;-51